Time;durP1;ratioP1;P1;durP2;ratioP2;P2;SDS_P1;SDS_P2;PMS_P1;PMS_P2;Temp;Humidity;BMP_temperature;BMP_pressure;BME280_temperature;BME280_humidity;BME280_pressure;Samples;Min_cycle;Max_cycle;Signal;HPM_P1;HPM_P2
2022/10/31 00:02:24;;;;;;;18.45;6.60;;;;;;;;;;4905354;29;20058;-68
2022/10/31 00:04:50;;;;;;;16.10;6.82;;;;;;;;;;4904354;28;20052;-68
2022/10/31 00:07:15;;;;;;;16.83;6.63;;;;;;;;;;4905231;29;20052;-68
2022/10/31 00:09:41;;;;;;;18.83;8.02;;;;;;;;;;4904888;29;20063;-68
2022/10/31 00:12:06;;;;;;;15.32;6.10;;;;;;;;;;4905514;28;20122;-68
2022/10/31 00:14:32;;;;;;;16.88;6.20;;;;;;;;;;4919503;29;20047;-68
2022/10/31 00:16:57;;;;;;;13.52;6.95;;;;;;;;;;4904009;28;20036;-68
2022/10/31 00:19:22;;;;;;;18.20;6.80;;;;;;;;;;4904890;29;20047;-68
2022/10/31 00:21:48;;;;;;;22.42;6.50;;;;;;;;;;4903713;29;20055;-68
2022/10/31 00:24:13;;;;;;;15.60;6.53;;;;;;;;;;4905558;28;20774;-68
2022/10/31 00:26:39;;;;;;;16.50;5.95;;;;;;;;;;4903097;29;20636;-68
2022/10/31 00:29:04;;;;;;;20.38;8.52;;;;;;;;;;4904111;28;20052;-68
2022/10/31 00:31:31;;;;;;;21.30;8.15;;;;;;;;;;4903316;29;20521;-68
2022/10/31 00:33:57;;;;;;;17.45;8.23;;;;;;;;;;4919568;29;20136;-68
2022/10/31 00:36:25;;;;;;;19.13;7.75;;;;;;;;;;4905132;28;20523;-69
2022/10/31 00:38:51;;;;;;;21.83;6.82;;;;;;;;;;4917898;29;20051;-67
2022/10/31 00:41:17;;;;;;;16.38;7.18;;;;;;;;;;4903760;29;20111;-68
2022/10/31 00:43:43;;;;;;;19.20;6.20;;;;;;;;;;4919270;29;20116;-68
2022/10/31 00:46:10;;;;;;;20.25;7.65;;;;;;;;;;4904728;29;20044;-67
2022/10/31 00:48:35;;;;;;;14.98;6.38;;;;;;;;;;4902399;29;20473;-68
2022/10/31 00:51:01;;;;;;;12.70;6.03;;;;;;;;;;4904155;29;20052;-68
2022/10/31 00:53:26;;;;;;;14.63;6.43;;;;;;;;;;4903527;29;20099;-67
2022/10/31 00:55:52;;;;;;;10.93;6.13;;;;;;;;;;4903221;29;20036;-69
2022/10/31 00:58:18;;;;;;;17.58;6.15;;;;;;;;;;4903312;29;20044;-70
2022/10/31 01:00:43;;;;;;;16.75;6.65;;;;;;;;;;4901580;29;20063;-67
2022/10/31 01:03:09;;;;;;;15.55;6.65;;;;;;;;;;4919128;29;20044;-67
2022/10/31 01:05:38;;;;;;;16.80;6.75;;;;;;;;;;4904417;28;20074;-67
2022/10/31 01:08:04;;;;;;;15.98;6.20;;;;;;;;;;4904596;29;21209;-67
2022/10/31 01:10:29;;;;;;;20.10;6.80;;;;;;;;;;4918172;29;20052;-67
2022/10/31 01:12:54;;;;;;;12.77;6.25;;;;;;;;;;4902280;29;20040;-67
2022/10/31 01:15:22;;;;;;;16.20;5.95;;;;;;;;;;4902632;29;20059;-70
2022/10/31 01:17:48;;;;;;;19.83;6.50;;;;;;;;;;4901602;29;20051;-70
2022/10/31 01:20:15;;;;;;;18.95;7.40;;;;;;;;;;4902190;29;20135;-69
2022/10/31 01:22:41;;;;;;;15.43;7.47;;;;;;;;;;4917772;29;20090;-70
2022/10/31 01:25:08;;;;;;;17.23;7.90;;;;;;;;;;4900172;29;20051;-70
2022/10/31 01:27:34;;;;;;;13.48;6.90;;;;;;;;;;4903421;29;20044;-70
2022/10/31 01:29:59;;;;;;;19.17;8.18;;;;;;;;;;4918399;28;20079;-70
2022/10/31 01:32:25;;;;;;;23.58;9.07;;;;;;;;;;4904374;29;20048;-70
2022/10/31 01:34:50;;;;;;;21.02;8.02;;;;;;;;;;4903598;28;20090;-70
2022/10/31 01:37:16;;;;;;;23.70;7.70;;;;;;;;;;4918179;29;20646;-70
2022/10/31 01:39:41;;;;;;;18.98;7.25;;;;;;;;;;4903751;29;20104;-69
2022/10/31 01:42:17;;;;;;;19.17;7.38;;;;;;;;;;4904163;29;20446;-70
2022/10/31 01:44:42;;;;;;;21.90;7.88;;;;;;;;;;4921812;29;20086;-70
2022/10/31 01:47:17;;;;;;;17.33;8.55;;;;;;;;;;4907699;28;20528;-70
2022/10/31 01:49:53;;;;;;;15.88;8.18;;;;;;;;;;4906727;29;20043;-70
2022/10/31 01:52:24;;;;;;;21.98;8.35;;;;;;;;;;4922149;29;20497;-70
2022/10/31 01:55:01;;;;;;;23.65;8.10;;;;;;;;;;4910754;28;20060;-70
2022/10/31 01:57:29;;;;;;;17.08;7.45;;;;;;;;;;4907673;29;20199;-70
2022/10/31 01:59:58;;;;;;;16.88;7.68;;;;;;;;;;4905510;29;20382;-70
2022/10/31 02:02:25;;;;;;;18.98;7.20;;;;;;;;;;4906387;29;20043;-69
2022/10/31 02:04:51;;;;;;;15.20;7.05;;;;;;;;;;4905344;28;20048;-70
2022/10/31 02:07:26;;;;;;;18.33;7.55;;;;;;;;;;4906086;29;20603;-70
2022/10/31 02:09:53;;;;;;;16.23;6.72;;;;;;;;;;4917808;29;20052;-70
2022/10/31 02:12:19;;;;;;;17.17;6.70;;;;;;;;;;4905131;29;20814;-70
2022/10/31 02:14:46;;;;;;;20.92;7.78;;;;;;;;;;4905446;29;20048;-68
2022/10/31 02:17:12;;;;;;;26.70;8.35;;;;;;;;;;4905881;29;20084;-68
2022/10/31 02:20:00;;;;;;;13.88;6.60;;;;;;;;;;4905715;29;20994;-68
2022/10/31 02:22:33;;;;;;;22.75;7.68;;;;;;;;;;4905295;29;20040;-68
2022/10/31 02:25:28;;;;;;;12.02;8.02;;;;;;;;;;4906401;28;20047;-69
2022/10/31 02:28:04;;;;;;;16.15;7.30;;;;;;;;;;4920811;29;20515;-69
2022/10/31 02:30:47;;;;;;;17.90;6.63;;;;;;;;;;4905584;29;20119;-71
2022/10/31 02:33:18;;;;;;;21.23;7.10;;;;;;;;;;4919086;29;20493;-70
2022/10/31 02:35:59;;;;;;;17.10;7.07;;;;;;;;;;4905174;29;20101;-70
2022/10/31 02:38:36;;;;;;;19.48;7.32;;;;;;;;;;4905545;29;20187;-70
2022/10/31 02:41:25;;;;;;;18.65;7.25;;;;;;;;;;4920292;28;20076;-70
2022/10/31 02:44:07;;;;;;;17.85;7.57;;;;;;;;;;4906013;29;20106;-70
2022/10/31 02:46:32;;;;;;;11.60;6.68;;;;;;;;;;4906474;29;20048;-70
2022/10/31 02:49:07;;;;;;;21.17;6.57;;;;;;;;;;4904658;29;20044;-68
2022/10/31 02:51:33;;;;;;;18.08;7.15;;;;;;;;;;4906744;29;20055;-68
2022/10/31 02:53:58;;;;;;;15.55;6.63;;;;;;;;;;4905560;28;20048;-68
2022/10/31 02:56:24;;;;;;;15.65;7.13;;;;;;;;;;4905987;29;20093;-68
2022/10/31 02:58:53;;;;;;;18.17;6.78;;;;;;;;;;4904428;28;20048;-68
2022/10/31 03:01:39;;;;;;;17.63;7.95;;;;;;;;;;4905011;29;20143;-68
2022/10/31 03:04:25;;;;;;;22.30;7.40;;;;;;;;;;4921099;29;20051;-68
2022/10/31 03:07:03;;;;;;;26.40;7.65;;;;;;;;;;4903635;29;20094;-68
2022/10/31 03:09:51;;;;;;;317.35;10.70;;;;;;;;;;4906437;29;20075;-67
2022/10/31 03:12:22;;;;;;;12.45;6.10;;;;;;;;;;4920815;28;20055;-68
2022/10/31 03:14:59;;;;;;;11.93;5.53;;;;;;;;;;4904051;29;20048;-68
2022/10/31 03:17:39;;;;;;;10.48;6.07;;;;;;;;;;4904316;29;20048;-67
2022/10/31 03:20:07;;;;;;;13.27;5.68;;;;;;;;;;4897812;29;20048;-68
2022/10/31 03:22:35;;;;;;;15.35;6.35;;;;;;;;;;4904913;29;20131;-67
2022/10/31 03:25:04;;;;;;;12.55;5.80;;;;;;;;;;4919703;28;20162;-68
2022/10/31 03:27:33;;;;;;;13.38;6.05;;;;;;;;;;4904007;29;20048;-68
2022/10/31 03:30:03;;;;;;;12.65;6.00;;;;;;;;;;4920223;28;20070;-68
2022/10/31 03:32:33;;;;;;;15.00;4.35;;;;;;;;;;4920661;29;20047;-68
2022/10/31 03:35:03;;;;;;;12.75;4.63;;;;;;;;;;4903869;28;20036;-68
2022/10/31 03:37:31;;;;;;;6.43;4.82;;;;;;;;;;4920342;29;20079;-68
2022/10/31 03:39:59;;;;;;;9.73;4.03;;;;;;;;;;4903480;29;20071;-68
2022/10/31 03:42:29;;;;;;;9.75;4.70;;;;;;;;;;4904767;29;20059;-68
2022/10/31 03:45:12;;;;;;;7.72;4.90;;;;;;;;;;4919775;29;20051;-67
2022/10/31 03:47:42;;;;;;;7.55;4.45;;;;;;;;;;4904478;29;20882;-68
2022/10/31 03:50:10;;;;;;;6.88;5.15;;;;;;;;;;4902962;29;20051;-68
2022/10/31 03:52:49;;;;;;;6.00;4.63;;;;;;;;;;4904237;29;20048;-68
2022/10/31 03:55:23;;;;;;;9.43;4.32;;;;;;;;;;4903183;29;20088;-68
2022/10/31 03:58:40;;;;;;;9.15;4.60;;;;;;;;;;4905388;29;20169;-68
2022/10/31 04:01:11;;;;;;;10.05;5.00;;;;;;;;;;4916660;29;20151;-67
2022/10/31 04:03:38;;;;;;;14.27;5.90;;;;;;;;;;4920051;29;20412;-67
2022/10/31 04:06:11;;;;;;;9.80;5.13;;;;;;;;;;4904757;28;20051;-67
2022/10/31 04:08:44;;;;;;;12.55;5.70;;;;;;;;;;4917786;29;20048;-67
2022/10/31 04:11:16;;;;;;;15.90;5.90;;;;;;;;;;4917057;29;20048;-70
2022/10/31 04:13:46;;;;;;;;;;;;;;;;;;4904602;29;20045;-70
2022/10/31 04:16:20;;;;;;;11.13;5.88;;;;;;;;;;4903756;29;20315;-70
2022/10/31 04:18:46;;;;;;;14.07;5.55;;;;;;;;;;4903153;29;20079;-70
2022/10/31 04:21:11;;;;;;;15.95;6.05;;;;;;;;;;4903490;29;20052;-69
2022/10/31 04:23:37;;;;;;;11.43;6.20;;;;;;;;;;4900467;29;20051;-69
2022/10/31 04:26:16;;;;;;;14.93;6.85;;;;;;;;;;4903009;29;20159;-69
2022/10/31 04:28:43;;;;;;;19.85;6.72;;;;;;;;;;4904185;28;20052;-70
2022/10/31 04:31:13;;;;;;;11.20;6.60;;;;;;;;;;4904221;29;20055;-69
2022/10/31 04:33:39;;;;;;;16.90;7.28;;;;;;;;;;4918899;28;20048;-70
2022/10/31 04:36:05;;;;;;;17.73;6.53;;;;;;;;;;4919306;29;20040;-70
2022/10/31 04:38:30;;;;;;;18.60;6.82;;;;;;;;;;4903573;29;20066;-69
2022/10/31 04:40:56;;;;;;;21.63;7.88;;;;;;;;;;4902647;29;20135;-70
2022/10/31 04:43:48;;;;;;;19.08;7.25;;;;;;;;;;4903657;29;20083;-69
2022/10/31 04:46:14;;;;;;;19.52;7.07;;;;;;;;;;4901499;29;20105;-70
2022/10/31 04:48:40;;;;;;;14.95;7.32;;;;;;;;;;4904476;29;20438;-70
2022/10/31 04:51:06;;;;;;;17.92;6.65;;;;;;;;;;4902370;28;20082;-69
2022/10/31 04:53:32;;;;;;;21.90;7.60;;;;;;;;;;4918953;29;20044;-69
2022/10/31 04:56:16;;;;;;;14.27;8.00;;;;;;;;;;4903474;29;20172;-70
2022/10/31 04:58:45;;;;;;;16.73;7.47;;;;;;;;;;4902646;29;20056;-70
2022/10/31 05:01:12;;;;;;;13.40;7.25;;;;;;;;;;4902642;29;20047;-70
2022/10/31 05:03:39;;;;;;;22.65;7.70;;;;;;;;;;4919175;28;20051;-69
2022/10/31 05:06:06;;;;;;;16.88;7.88;;;;;;;;;;4902941;29;20420;-67
2022/10/31 05:08:31;;;;;;;22.95;9.38;;;;;;;;;;4904778;29;20044;-68
2022/10/31 05:11:01;;;;;;;28.65;12.25;;;;;;;;;;4902312;29;20062;-67
2022/10/31 05:13:27;;;;;;;37.40;12.15;;;;;;;;;;4903184;29;20143;-68
2022/10/31 05:16:11;;;;;;;21.77;9.18;;;;;;;;;;4903837;28;20076;-68
2022/10/31 05:18:56;;;;;;;19.13;7.68;;;;;;;;;;4907109;29;20050;-68
2022/10/31 05:21:45;;;;;;;18.65;7.70;;;;;;;;;;4915845;28;20131;-68
2022/10/31 05:24:10;;;;;;;18.80;7.68;;;;;;;;;;4906887;29;20497;-70
2022/10/31 05:26:38;;;;;;;17.73;7.82;;;;;;;;;;4906917;29;20052;-70
2022/10/31 05:29:04;;;;;;;21.08;8.43;;;;;;;;;;4906975;28;20051;-70
2022/10/31 05:31:30;;;;;;;19.95;9.05;;;;;;;;;;4906776;29;20128;-70
2022/10/31 05:33:55;;;;;;;19.05;7.03;;;;;;;;;;4906812;29;20404;-70
2022/10/31 05:36:39;;;;;;;16.38;6.80;;;;;;;;;;4908158;29;20938;-70
2022/10/31 05:39:11;;;;;;;17.15;6.63;;;;;;;;;;4905386;29;20131;-70
2022/10/31 05:41:42;;;;;;;17.92;6.60;;;;;;;;;;4906454;29;20060;-70
2022/10/31 05:44:13;;;;;;;22.43;7.93;;;;;;;;;;4906729;29;20048;-70
2022/10/31 05:46:52;;;;;;;16.88;6.38;;;;;;;;;;4905733;29;20052;-70
2022/10/31 05:49:37;;;;;;;15.02;6.80;;;;;;;;;;4908034;29;20568;-69
2022/10/31 05:52:21;;;;;;;12.35;6.18;;;;;;;;;;4907383;28;20188;-70
2022/10/31 05:54:58;;;;;;;17.33;6.25;;;;;;;;;;4905871;29;20040;-70
2022/10/31 05:57:23;;;;;;;17.10;7.07;;;;;;;;;;4922167;28;20099;-70
2022/10/31 05:59:52;;;;;;;10.38;5.72;;;;;;;;;;4921952;29;20080;-70
2022/10/31 06:02:21;;;;;;;18.70;6.88;;;;;;;;;;4905230;29;20448;-70
2022/10/31 06:05:19;;;;;;;9.35;5.45;;;;;;;;;;4920693;29;20048;-70
2022/10/31 06:07:45;;;;;;;16.83;6.68;;;;;;;;;;4907449;29;20058;-70
2022/10/31 06:10:10;;;;;;;15.73;6.68;;;;;;;;;;4907396;28;20348;-70
2022/10/31 06:12:37;;;;;;;19.45;6.47;;;;;;;;;;4905621;29;20072;-70
2022/10/31 06:15:20;;;;;;;23.50;6.47;;;;;;;;;;4919427;29;20075;-70
2022/10/31 06:17:46;;;;;;;21.40;7.68;;;;;;;;;;4905908;29;20165;-70
2022/10/31 06:20:24;;;;;;;16.10;7.63;;;;;;;;;;4905959;29;20055;-70
2022/10/31 06:22:57;;;;;;;15.30;6.65;;;;;;;;;;4905310;29;20052;-70
2022/10/31 06:25:23;;;;;;;17.98;6.78;;;;;;;;;;4921164;28;20048;-70
2022/10/31 06:27:49;;;;;;;17.13;7.80;;;;;;;;;;4905508;29;20047;-70
2022/10/31 06:30:15;;;;;;;16.83;7.20;;;;;;;;;;4905506;29;20052;-70
2022/10/31 06:32:41;;;;;;;38.80;6.65;;;;;;;;;;4905883;29;20051;-70
2022/10/31 06:35:08;;;;;;;35.92;5.88;;;;;;;;;;4904882;29;20529;-70
2022/10/31 06:37:34;;;;;;;8.32;5.80;;;;;;;;;;4905721;29;20533;-70
2022/10/31 06:40:16;;;;;;;11.40;5.70;;;;;;;;;;4905451;29;20513;-70
2022/10/31 06:43:02;;;;;;;8.30;5.40;;;;;;;;;;4906416;28;20895;-70
2022/10/31 06:45:29;;;;;;;7.40;5.93;;;;;;;;;;4904822;29;20816;-71
2022/10/31 06:48:23;;;;;;;10.30;5.88;;;;;;;;;;4909607;29;20788;-71
2022/10/31 06:51:08;;;;;;;9.88;5.50;;;;;;;;;;4906088;29;20058;-70
2022/10/31 06:53:34;;;;;;;10.00;5.90;;;;;;;;;;4921091;29;20052;-70
2022/10/31 06:56:00;;;;;;;10.30;5.25;;;;;;;;;;4905615;29;20167;-70
2022/10/31 06:58:26;;;;;;;13.43;5.60;;;;;;;;;;4889090;29;20099;-70
2022/10/31 07:00:59;;;;;;;12.25;5.95;;;;;;;;;;4904047;28;20048;-69
2022/10/31 07:03:24;;;;;;;8.18;5.10;;;;;;;;;;4906356;29;20051;-69
2022/10/31 07:05:50;;;;;;;11.75;4.78;;;;;;;;;;4905296;29;20048;-69
2022/10/31 07:08:16;;;;;;;7.80;4.20;;;;;;;;;;4904369;29;20052;-69
2022/10/31 07:10:43;;;;;;;10.27;3.97;;;;;;;;;;4904925;29;20046;-70
2022/10/31 07:13:13;;;;;;;12.18;3.90;;;;;;;;;;4904938;29;20063;-69
2022/10/31 07:15:41;;;;;;;10.85;3.70;;;;;;;;;;4904968;29;20044;-70
2022/10/31 07:18:09;;;;;;;9.70;3.13;;;;;;;;;;4904450;29;20067;-69
2022/10/31 07:20:35;;;;;;;7.38;2.90;;;;;;;;;;4904289;29;20051;-69
2022/10/31 07:23:02;;;;;;;9.98;2.92;;;;;;;;;;4904380;29;20075;-69
2022/10/31 07:25:29;;;;;;;11.30;3.05;;;;;;;;;;4920620;28;20075;-69
2022/10/31 07:27:57;;;;;;;11.25;3.25;;;;;;;;;;4906080;29;20052;-69
2022/10/31 07:30:23;;;;;;;10.25;3.78;;;;;;;;;;4922446;29;20051;-69
2022/10/31 07:32:53;;;;;;;6.30;2.88;;;;;;;;;;4919971;28;20469;-69
2022/10/31 07:35:24;;;;;;;10.27;2.70;;;;;;;;;;4920470;29;20143;-69
2022/10/31 07:37:55;;;;;;;6.70;2.20;;;;;;;;;;4920363;28;20516;-69
2022/10/31 07:40:23;;;;;;;8.13;2.47;;;;;;;;;;4903273;29;20050;-69
2022/10/31 07:42:51;;;;;;;8.90;2.53;;;;;;;;;;4919578;28;20056;-69
2022/10/31 07:45:53;;;;;;;8.38;2.28;;;;;;;;;;4896960;29;20576;-69
2022/10/31 07:48:38;;;;;;;2.30;2.00;;;;;;;;;;4906373;29;20139;-69
2022/10/31 07:51:23;;;;;;;13.13;2.72;;;;;;;;;;4932270;29;20086;-69
2022/10/31 07:54:09;;;;;;;5.47;2.63;;;;;;;;;;4905446;29;20040;-69
2022/10/31 07:56:35;;;;;;;7.72;2.42;;;;;;;;;;4904496;29;20072;-69
2022/10/31 07:59:01;;;;;;;10.90;3.05;;;;;;;;;;4905225;29;20071;-69
2022/10/31 08:01:26;;;;;;;12.15;2.92;;;;;;;;;;4903882;29;20055;-69
2022/10/31 08:04:17;;;;;;;10.65;2.58;;;;;;;;;;4904871;29;20044;-69
2022/10/31 08:07:02;;;;;;;7.85;2.67;;;;;;;;;;4904656;28;20110;-69
2022/10/31 08:09:33;;;;;;;9.63;2.88;;;;;;;;;;4903979;29;20553;-69
2022/10/31 08:12:03;;;;;;;6.47;2.40;;;;;;;;;;4904110;29;20071;-69
2022/10/31 08:14:29;;;;;;;8.93;2.65;;;;;;;;;;4903131;29;20058;-70
2022/10/31 08:16:56;;;;;;;9.68;2.60;;;;;;;;;;4903034;29;20041;-69
2022/10/31 08:19:24;;;;;;;13.02;2.63;;;;;;;;;;4919439;28;20056;-69
2022/10/31 08:21:54;;;;;;;5.85;2.35;;;;;;;;;;4903784;29;20048;-69
2022/10/31 08:24:21;;;;;;;6.72;2.40;;;;;;;;;;4918936;29;20519;-70
2022/10/31 08:26:47;;;;;;;7.30;2.60;;;;;;;;;;4902894;29;20096;-69
2022/10/31 08:29:12;;;;;;;8.68;2.45;;;;;;;;;;4903766;29;20104;-69
2022/10/31 08:31:40;;;;;;;9.02;2.40;;;;;;;;;;4919446;28;20047;-69
2022/10/31 08:34:26;;;;;;;7.82;2.80;;;;;;;;;;4905127;29;20091;-70
2022/10/31 08:37:10;;;;;;;12.52;3.22;;;;;;;;;;4903886;28;20094;-69
2022/10/31 08:39:40;;;;;;;8.35;2.33;;;;;;;;;;4918923;29;20139;-70
2022/10/31 08:42:05;;;;;;;6.97;2.42;;;;;;;;;;4903590;29;20130;-69
2022/10/31 08:44:31;;;;;;;13.23;2.60;;;;;;;;;;4903301;29;20050;-69
2022/10/31 08:46:56;;;;;;;7.07;2.75;;;;;;;;;;4901927;29;20096;-69
2022/10/31 08:49:22;;;;;;;9.23;2.30;;;;;;;;;;4902935;29;20588;-69
2022/10/31 08:51:48;;;;;;;12.65;2.95;;;;;;;;;;4903416;29;20135;-69
2022/10/31 08:54:14;;;;;;;7.65;2.30;;;;;;;;;;4903340;29;20054;-69
2022/10/31 08:56:53;;;;;;;8.07;2.63;;;;;;;;;;4904320;28;20032;-69
2022/10/31 08:59:39;;;;;;;5.30;2.30;;;;;;;;;;4918524;29;20107;-69
2022/10/31 09:02:43;;;;;;;11.48;2.70;;;;;;;;;;4908567;28;20512;-69
2022/10/31 09:05:08;;;;;;;8.45;2.88;;;;;;;;;;4902705;29;20076;-69
2022/10/31 09:07:34;;;;;;;6.32;2.58;;;;;;;;;;4903231;29;20143;-69
2022/10/31 09:09:59;;;;;;;5.88;2.50;;;;;;;;;;4902035;29;20086;-70
2022/10/31 09:12:29;;;;;;;6.38;2.80;;;;;;;;;;4903051;29;20056;-70
2022/10/31 09:15:20;;;;;;;8.73;3.03;;;;;;;;;;4901631;29;20060;-70
2022/10/31 09:17:51;;;;;;;9.95;3.40;;;;;;;;;;4903148;29;20047;-70
2022/10/31 09:20:36;;;;;;;11.82;3.25;;;;;;;;;;4901978;29;20128;-70
2022/10/31 09:23:06;;;;;;;7.38;2.33;;;;;;;;;;4903877;29;20103;-70
2022/10/31 09:25:35;;;;;;;;;;;;;;;;;;4903545;29;20048;-70
2022/10/31 09:28:23;;;;;;;11.85;2.95;;;;;;;;;;4904344;29;19981;-70
2022/10/31 09:30:51;;;;;;;9.27;2.72;;;;;;;;;;4917157;28;20052;-70
2022/10/31 09:33:33;;;;;;;7.82;2.90;;;;;;;;;;4902831;29;20044;-70
2022/10/31 09:36:18;;;;;;;9.15;2.95;;;;;;;;;;4904259;29;20044;-70
2022/10/31 09:38:44;;;;;;;10.30;3.08;;;;;;;;;;4904180;28;20111;-70
2022/10/31 09:41:28;;;;;;;15.57;3.45;;;;;;;;;;4901746;29;20040;-70
2022/10/31 09:44:24;;;;;;;6.40;2.75;;;;;;;;;;4918266;28;20052;-70
2022/10/31 09:46:58;;;;;;;8.35;3.20;;;;;;;;;;4916987;29;20054;-70
2022/10/31 09:49:50;;;;;;;12.40;3.22;;;;;;;;;;4918423;28;20056;-70
2022/10/31 09:52:24;;;;;;;9.10;2.92;;;;;;;;;;4917608;29;20044;-69
2022/10/31 09:54:59;;;;;;;12.48;3.65;;;;;;;;;;4917475;28;20056;-69
2022/10/31 09:57:29;;;;;;;10.20;3.13;;;;;;;;;;4918614;29;20043;-69
2022/10/31 09:59:56;;;;;;;7.53;3.13;;;;;;;;;;4902648;29;20555;-70
2022/10/31 10:02:29;;;;;;;10.50;3.65;;;;;;;;;;4902711;29;20063;-69
2022/10/31 10:05:09;;;;;;;11.88;4.07;;;;;;;;;;4905139;29;20416;-69
2022/10/31 10:08:03;;;;;;;7.60;3.50;;;;;;;;;;4921897;28;20052;-69
2022/10/31 10:11:05;;;;;;;11.02;3.00;;;;;;;;;;4906434;29;20238;-69
2022/10/31 10:13:51;;;;;;;7.32;3.13;;;;;;;;;;4907580;28;20135;-69
2022/10/31 10:16:47;;;;;;;7.63;3.30;;;;;;;;;;4906436;29;20127;-71
2022/10/31 10:19:42;;;;;;;7.93;2.72;;;;;;;;;;4906666;28;20111;-69
2022/10/31 10:22:19;;;;;;;11.07;3.33;;;;;;;;;;4907236;29;20139;-70
2022/10/31 10:25:02;;;;;;;12.27;2.92;;;;;;;;;;4907056;29;20040;-70
2022/10/31 10:27:53;;;;;;;10.50;3.35;;;;;;;;;;4917931;29;20119;-70
2022/10/31 10:30:30;;;;;;;17.05;3.22;;;;;;;;;;4906639;29;20055;-70
2022/10/31 10:32:59;;;;;;;16.40;3.30;;;;;;;;;;4906611;28;20052;-70
2022/10/31 10:35:34;;;;;;;18.55;3.40;;;;;;;;;;4907357;29;20128;-70
2022/10/31 10:38:44;;;;;;;8.43;3.33;;;;;;;;;;4906217;28;20052;-71
2022/10/31 10:41:16;;;;;;;9.77;3.30;;;;;;;;;;4913903;29;20052;-71
2022/10/31 10:43:41;;;;;;;8.23;3.63;;;;;;;;;;4907225;28;20060;-69
2022/10/31 10:49:18;;;;;;;14.40;3.75;;;;;;;;;;4905730;28;20127;-69
2022/10/31 10:51:55;;;;;;;12.98;3.58;;;;;;;;;;4906619;29;20800;-70
2022/10/31 10:54:48;;;;;;;10.07;2.90;;;;;;;;;;4906796;29;20142;-70
2022/10/31 10:57:26;;;;;;;9.20;3.40;;;;;;;;;;4905912;29;20051;-69
2022/10/31 10:59:51;;;;;;;11.20;3.60;;;;;;;;;;4905153;29;20055;-69
2022/10/31 11:02:23;;;;;;;8.23;3.38;;;;;;;;;;4906521;28;20412;-70
2022/10/31 11:04:52;;;;;;;11.20;4.07;;;;;;;;;;4911351;29;20067;-68
2022/10/31 11:07:18;;;;;;;13.35;3.83;;;;;;;;;;4914088;28;20064;-69
2022/10/31 11:09:44;;;;;;;10.32;3.40;;;;;;;;;;4911092;29;20056;-68
2022/10/31 11:12:17;;;;;;;9.18;4.13;;;;;;;;;;4914762;29;20048;-68
2022/10/31 11:14:47;;;;;;;19.08;4.38;;;;;;;;;;4933365;28;20048;-67
2022/10/31 11:17:30;;;;;;;11.57;3.72;;;;;;;;;;4915069;29;20139;-69
2022/10/31 11:20:31;;;;;;;8.95;3.47;;;;;;;;;;4917059;29;20048;-67
2022/10/31 11:23:18;;;;;;;13.63;3.15;;;;;;;;;;4915744;29;20183;-67
2022/10/31 11:25:50;;;;;;;10.27;3.88;;;;;;;;;;4916583;28;20048;-68
2022/10/31 11:28:15;;;;;;;10.43;3.55;;;;;;;;;;4914037;29;20047;-69
2022/10/31 11:30:52;;;;;;;8.90;3.33;;;;;;;;;;4914511;29;20052;-67
2022/10/31 11:33:37;;;;;;;14.13;3.88;;;;;;;;;;4931048;29;20516;-69
2022/10/31 11:36:18;;;;;;;12.75;3.47;;;;;;;;;;4911713;29;20054;-68
2022/10/31 11:38:44;;;;;;;14.00;3.60;;;;;;;;;;4925540;28;20055;-69
2022/10/31 11:41:19;;;;;;;12.00;3.38;;;;;;;;;;4894475;29;20044;-68
2022/10/31 11:43:56;;;;;;;10.13;3.42;;;;;;;;;;4911472;28;20092;-67
2022/10/31 11:46:34;;;;;;;10.43;2.88;;;;;;;;;;4911427;29;20051;-68
2022/10/31 11:49:00;;;;;;;7.35;3.28;;;;;;;;;;4912325;28;20564;-68
2022/10/31 11:51:32;;;;;;;13.98;3.83;;;;;;;;;;4911494;29;20417;-70
2022/10/31 11:53:59;;;;;;;15.10;3.90;;;;;;;;;;4910059;29;20048;-70
2022/10/31 11:56:25;;;;;;;10.07;4.32;;;;;;;;;;4926118;28;20050;-67
2022/10/31 11:58:59;;;;;;;6.55;3.40;;;;;;;;;;4912058;29;20475;-68
2022/10/31 12:01:27;;;;;;;9.23;3.20;;;;;;;;;;4909239;29;20088;-69
2022/10/31 12:03:59;;;;;;;13.32;3.90;;;;;;;;;;4910286;29;20059;-70
2022/10/31 12:06:32;;;;;;;9.80;3.58;;;;;;;;;;4908876;29;20055;-70
2022/10/31 12:08:59;;;;;;;15.60;3.60;;;;;;;;;;4910732;28;20062;-68
2022/10/31 12:11:47;;;;;;;14.70;3.60;;;;;;;;;;4923189;29;20722;-69
2022/10/31 12:14:27;;;;;;;13.68;4.00;;;;;;;;;;4908229;28;20580;-71
2022/10/31 12:17:08;;;;;;;8.80;3.58;;;;;;;;;;4904439;29;20063;-70
2022/10/31 12:19:47;;;;;;;9.68;3.72;;;;;;;;;;4905037;28;20044;-70
2022/10/31 12:22:24;;;;;;;15.68;3.75;;;;;;;;;;4905365;29;20106;-69
2022/10/31 12:25:31;;;;;;;10.88;4.05;;;;;;;;;;4904865;28;20120;-68
2022/10/31 12:28:12;;;;;;;11.90;3.78;;;;;;;;;;4903725;29;20056;-72
2022/10/31 12:31:13;;;;;;;11.27;3.77;;;;;;;;;;4905283;29;20056;-70
2022/10/31 12:34:20;;;;;;;13.13;3.78;;;;;;;;;;4916791;29;20056;-69
2022/10/31 12:37:09;;;;;;;7.03;3.40;;;;;;;;;;4923004;29;20058;-69
2022/10/31 12:39:53;;;;;;;6.88;3.28;;;;;;;;;;4905951;29;20552;-71
2022/10/31 12:42:25;;;;;;;12.93;3.65;;;;;;;;;;4904920;29;20040;-72
2022/10/31 12:45:20;;;;;;;7.38;3.70;;;;;;;;;;4904503;28;20056;-69
2022/10/31 12:48:28;;;;;;;12.45;3.35;;;;;;;;;;4904812;29;20075;-72
2022/10/31 12:51:19;;;;;;;13.10;3.40;;;;;;;;;;4903795;28;20735;-73
2022/10/31 12:54:25;;;;;;;9.57;3.60;;;;;;;;;;4905132;29;20469;-75
2022/10/31 12:56:53;;;;;;;16.50;4.30;;;;;;;;;;4903353;28;20062;-72
2022/10/31 12:59:31;;;;;;;11.68;3.70;;;;;;;;;;4904644;29;20055;-69
2022/10/31 13:02:12;;;;;;;14.45;4.10;;;;;;;;;;4904126;28;20059;-72
2022/10/31 13:04:44;;;;;;;9.65;3.53;;;;;;;;;;4904993;29;20056;-74
2022/10/31 13:07:17;;;;;;;12.85;4.00;;;;;;;;;;4904290;28;20044;-70
2022/10/31 13:09:54;;;;;;;15.35;3.97;;;;;;;;;;4904119;29;20583;-75
2022/10/31 13:12:22;;;;;;;16.13;3.90;;;;;;;;;;4904729;29;20052;-68
2022/10/31 13:14:53;;;;;;;9.50;3.88;;;;;;;;;;4904313;28;20055;-71
2022/10/31 13:17:24;;;;;;;16.05;4.28;;;;;;;;;;4905286;29;20603;-69
2022/10/31 13:19:53;;;;;;;11.65;3.83;;;;;;;;;;4904322;28;20056;-69
2022/10/31 13:22:24;;;;;;;16.20;4.03;;;;;;;;;;4904230;29;20056;-74
2022/10/31 13:25:01;;;;;;;17.40;3.85;;;;;;;;;;4904127;28;20138;-69
2022/10/31 13:27:33;;;;;;;15.90;4.28;;;;;;;;;;4904596;29;20495;-75
2022/10/31 13:29:58;;;;;;;;;;;;;;;;;;4904801;29;20062;-69
2022/10/31 13:32:27;;;;;;;11.82;4.68;;;;;;;;;;4903836;28;19923;-69
2022/10/31 13:34:57;;;;;;;11.07;4.20;;;;;;;;;;4904010;29;20056;-69
2022/10/31 13:37:40;;;;;;;9.07;4.30;;;;;;;;;;4904620;28;20059;-72
2022/10/31 13:40:31;;;;;;;15.00;4.35;;;;;;;;;;4907887;29;20568;-70
2022/10/31 13:43:11;;;;;;;12.02;4.32;;;;;;;;;;4907517;28;20047;-72
2022/10/31 13:45:48;;;;;;;10.18;3.78;;;;;;;;;;4907775;29;20055;-68
2022/10/31 13:48:13;;;;;;;10.18;4.25;;;;;;;;;;4908226;29;20888;-72
2022/10/31 13:50:39;;;;;;;13.48;4.38;;;;;;;;;;4908009;28;20806;-72
2022/10/31 13:53:16;;;;;;;10.73;3.70;;;;;;;;;;4907749;29;20048;-70
2022/10/31 13:55:45;;;;;;;14.68;4.72;;;;;;;;;;4907837;28;20047;-70
2022/10/31 13:58:30;;;;;;;11.85;4.30;;;;;;;;;;4907369;29;20088;-72
2022/10/31 14:00:58;;;;;;;19.80;4.40;;;;;;;;;;4906926;28;20048;-69
2022/10/31 14:03:25;;;;;;;12.73;4.10;;;;;;;;;;4908117;29;20163;-69
2022/10/31 14:05:55;;;;;;;15.48;4.30;;;;;;;;;;4907180;29;20070;-69
2022/10/31 14:08:23;;;;;;;11.73;3.63;;;;;;;;;;4908030;28;20071;-69
2022/10/31 14:10:52;;;;;;;12.90;3.65;;;;;;;;;;4906738;29;20191;-70
2022/10/31 14:13:20;;;;;;;11.80;3.88;;;;;;;;;;4907154;28;20052;-70
2022/10/31 14:16:01;;;;;;;9.25;3.78;;;;;;;;;;4921733;29;20139;-72
2022/10/31 14:18:34;;;;;;;15.30;4.13;;;;;;;;;;4906838;29;20079;-69
2022/10/31 14:20:59;;;;;;;16.02;4.38;;;;;;;;;;4906939;28;20047;-69
2022/10/31 14:23:32;;;;;;;11.80;3.75;;;;;;;;;;4907615;29;20055;-71
2022/10/31 14:26:21;;;;;;;10.23;3.92;;;;;;;;;;4907140;28;20055;-71
2022/10/31 14:28:48;;;;;;;8.98;3.65;;;;;;;;;;4906704;29;20059;-69
2022/10/31 14:31:31;;;;;;;14.65;3.90;;;;;;;;;;4906197;28;20055;-69
2022/10/31 14:34:01;;;;;;;15.27;3.88;;;;;;;;;;4907271;29;20056;-69
2022/10/31 14:36:29;;;;;;;9.50;3.75;;;;;;;;;;4907658;29;20036;-69
2022/10/31 14:39:13;;;;;;;17.63;4.32;;;;;;;;;;4905666;28;20171;-70
2022/10/31 14:41:44;;;;;;;11.32;4.03;;;;;;;;;;4906876;29;20119;-68
2022/10/31 14:44:45;;;;;;;9.43;4.05;;;;;;;;;;4906871;28;20116;-72
2022/10/31 14:47:26;;;;;;;15.10;4.13;;;;;;;;;;4909114;29;20056;-68
2022/10/31 14:50:21;;;;;;;14.57;4.25;;;;;;;;;;4906130;28;20052;-69
2022/10/31 14:52:50;;;;;;;13.63;4.50;;;;;;;;;;4906558;29;20155;-74
2022/10/31 14:55:17;;;;;;;17.02;4.35;;;;;;;;;;4906376;28;20058;-72
2022/10/31 14:57:51;;;;;;;14.43;4.25;;;;;;;;;;4907040;29;20066;-69
2022/10/31 15:00:19;;;;;;;12.52;4.05;;;;;;;;;;4905914;29;20051;-70
2022/10/31 15:03:06;;;;;;;16.73;4.38;;;;;;;;;;4907078;28;20108;-69
2022/10/31 15:05:34;;;;;;;14.93;4.43;;;;;;;;;;4932516;28;20082;-69
2022/10/31 15:08:00;;;;;;;18.48;6.43;;;;;;;;;;4906360;28;20062;-72
2022/10/31 15:10:29;;;;;;;10.93;6.20;;;;;;;;;;4906308;29;20051;-73
2022/10/31 15:12:56;;;;;;;17.58;6.13;;;;;;;;;;4905398;28;20126;-69
2022/10/31 15:15:26;;;;;;;14.95;5.35;;;;;;;;;;4906315;29;20071;-68